Terminal Aerodrome Forecast
Issued by NWS

Current Version | Previous Version | Text Only | Print | Product List | Glossary Off
Versions: 1 2 3 4 5 6 7 8 9 10 11 12 13 14 15

333
FTUS44 KCRP 011134
TAFLRD
TAF
KLRD 011134Z 0112/0212 12006KT P6SM SKC
     FM020000 13016KT P6SM SCT090
     FM020700 12006KT P6SM SKC=

USA.gov is the U.S. government's official web portal to all federal, state and local government web resources and services.